Time;durP1;ratioP1;P1;durP2;ratioP2;P2;SDS_P1;SDS_P2;PMS_P1;PMS_P2;Temp;Humidity;BMP_temperature;BMP_pressure;BME280_temperature;BME280_humidity;BME280_pressure;Samples;Min_cycle;Max_cycle;Signal;HPM_P1;HPM_P2
2022/01/11 00:00:37;;;;;;;65.32;26.00;;;2.40;99.90;;;;;;5026277;28;20076;-71
2022/01/11 00:03:05;;;;;;;64.43;25.58;;;2.40;99.90;;;;;;5025445;28;20390;-71
2022/01/11 00:05:37;;;;;;;59.55;24.83;;;2.50;99.90;;;;;;5036051;28;20029;-71
2022/01/11 00:08:03;;;;;;;61.65;25.10;;;2.40;99.90;;;;;;5035588;28;20347;-71
2022/01/11 00:13:02;;;;;;;60.60;23.83;;;2.40;99.90;;;;;;5035702;28;20037;-71
2022/01/11 00:15:29;;;;;;;60.15;23.85;;;2.40;99.90;;;;;;5032644;28;20040;-71
2022/01/11 00:17:57;;;;;;;62.60;24.45;;;2.40;99.90;;;;;;5028077;28;20049;-71
2022/01/11 00:20:23;;;;;;;58.13;24.02;;;2.40;99.90;;;;;;5015531;28;20384;-71
2022/01/11 00:25:41;;;;;;;67.22;26.20;;;2.30;99.90;;;;;;5025624;28;20034;-71
2022/01/11 00:28:09;;;;;;;71.32;26.88;;;2.30;99.90;;;;;;5034895;28;20063;-71
2022/01/11 00:30:38;;;;;;;70.90;27.75;;;2.30;99.90;;;;;;5035495;28;20542;-71
2022/01/11 00:33:08;;;;;;;73.72;29.92;;;2.30;99.90;;;;;;5014898;28;20030;-71
2022/01/11 00:35:45;;;;;;;67.95;27.95;;;2.30;99.90;;;;;;5016016;28;20504;-71
2022/01/11 00:38:17;;;;;;;77.93;29.55;;;2.30;99.90;;;;;;5016938;28;20038;-71
2022/01/11 00:40:49;;;;;;;81.85;31.52;;;2.30;99.90;;;;;;5021795;28;20020;-71
2022/01/11 00:43:17;;;;;;;74.93;29.52;;;2.30;99.90;;;;;;5034698;28;20061;-71
2022/01/11 00:45:43;;;;;;;81.68;31.60;;;2.30;99.90;;;;;;5016483;28;20120;-71
2022/01/11 00:48:09;;;;;;;77.97;30.58;;;2.30;99.90;;;;;;5033848;28;20045;-71
2022/01/11 00:50:36;;;;;;;89.10;32.85;;;2.40;99.90;;;;;;5015326;28;20029;-71
2022/01/11 00:53:03;;;;;;;89.10;33.15;;;2.40;99.90;;;;;;5032369;28;20045;-71
2022/01/11 00:55:29;;;;;;;89.85;33.35;;;2.40;99.90;;;;;;5022149;28;20069;-71
2022/01/11 00:57:54;;;;;;;88.07;33.40;;;2.40;99.90;;;;;;5014975;28;20061;-71
2022/01/11 01:00:20;;;;;;;87.55;33.13;;;2.40;99.90;;;;;;5015024;28;20033;-71
2022/01/11 01:02:46;;;;;;;90.95;35.17;;;2.40;99.90;;;;;;5021832;28;20075;-71
2022/01/11 01:05:11;;;;;;;90.18;33.58;;;2.40;99.90;;;;;;5033382;28;20124;-71
2022/01/11 01:07:37;;;;;;;93.78;34.00;;;2.40;99.90;;;;;;5035165;28;20500;-71
2022/01/11 01:10:12;;;;;;;90.05;35.03;;;2.50;99.90;;;;;;5032770;28;20144;-71
2022/01/11 01:12:38;;;;;;;;;;;2.50;99.90;;;;;;5033638;28;20053;-71
2022/01/11 01:15:05;;;;;;;95.95;34.95;;;2.50;99.90;;;;;;5021269;28;20363;-71
2022/01/11 01:17:30;;;;;;;101.65;35.95;;;2.50;99.90;;;;;;5018398;28;20049;-71
2022/01/11 01:19:56;;;;;;;107.97;38.83;;;2.50;99.90;;;;;;5014920;28;20061;-71
2022/01/11 01:22:21;;;;;;;100.35;36.40;;;2.50;99.90;;;;;;5020193;28;20040;-72
2022/01/11 01:24:47;;;;;;;105.65;36.67;;;2.50;99.90;;;;;;5033927;28;20028;-72
2022/01/11 01:27:13;;;;;;;109.55;36.45;;;2.50;99.90;;;;;;5034238;28;20040;-72
2022/01/11 01:29:40;;;;;;;100.90;35.15;;;2.50;99.90;;;;;;5032544;28;20033;-71
2022/01/11 01:32:07;;;;;;;115.40;39.35;;;2.50;99.90;;;;;;5015823;28;20489;-71
2022/01/11 01:34:33;;;;;;;110.97;39.05;;;2.50;99.90;;;;;;5030053;28;20433;-72
2022/01/11 01:36:59;;;;;;;110.85;37.60;;;2.50;99.90;;;;;;5033492;28;20051;-71
2022/01/11 01:39:25;;;;;;;105.97;36.92;;;2.50;99.90;;;;;;5032401;28;20030;-71
2022/01/11 01:41:52;;;;;;;104.97;36.42;;;2.50;99.90;;;;;;5033720;28;20025;-72
2022/01/11 01:44:18;;;;;;;111.82;39.22;;;2.50;99.90;;;;;;5033757;28;20057;-72
2022/01/11 01:46:44;;;;;;;103.57;36.92;;;2.50;99.90;;;;;;5034102;28;20033;-71
2022/01/11 01:49:17;;;;;;;106.72;37.45;;;2.50;99.90;;;;;;5033838;28;20026;-72
2022/01/11 01:51:45;;;;;;;106.07;36.85;;;2.50;99.90;;;;;;5010872;28;20037;-71
2022/01/11 01:54:12;;;;;;;99.53;36.28;;;2.50;99.90;;;;;;5029877;28;20296;-72
2022/01/11 01:56:38;;;;;;;100.55;36.08;;;2.60;99.90;;;;;;5025094;28;20029;-72
2022/01/11 01:59:04;;;;;;;102.28;35.67;;;2.60;99.90;;;;;;5013965;28;20486;-72
2022/01/11 02:01:35;;;;;;;96.72;35.08;;;2.60;99.90;;;;;;5014415;28;20026;-72
2022/01/11 02:04:00;;;;;;;98.25;34.78;;;2.60;99.90;;;;;;5021568;28;20029;-72
2022/01/11 02:06:26;;;;;;;94.43;35.00;;;2.60;99.90;;;;;;5033863;28;20028;-71
2022/01/11 02:08:51;;;;;;;96.30;34.70;;;2.60;99.90;;;;;;5015465;28;20461;-72
2022/01/11 02:11:19;;;;;;;93.32;33.95;;;2.60;99.90;;;;;;5033584;28;20033;-72
2022/01/11 02:13:46;;;;;;;98.07;35.42;;;2.60;99.90;;;;;;5034003;28;20033;-72
2022/01/11 02:16:13;;;;;;;95.93;35.55;;;2.60;99.90;;;;;;5033087;28;20017;-72
2022/01/11 02:18:41;;;;;;;95.78;34.63;;;2.60;99.90;;;;;;5033707;28;20022;-72
2022/01/11 02:21:07;;;;;;;98.20;35.58;;;2.60;99.90;;;;;;5033713;28;20048;-72
2022/01/11 02:23:33;;;;;;;100.07;35.28;;;2.60;99.90;;;;;;5021408;28;20030;-71
2022/01/11 02:25:59;;;;;;;99.40;35.03;;;2.60;99.90;;;;;;5014614;28;20029;-72
2022/01/11 02:28:27;;;;;;;98.22;35.33;;;2.60;99.90;;;;;;5028082;28;20108;-72
2022/01/11 02:30:55;;;;;;;98.00;33.97;;;2.60;99.90;;;;;;5013742;28;20038;-72
2022/01/11 02:33:32;;;;;;;89.38;34.58;;;2.60;99.90;;;;;;5014448;28;20124;-71
2022/01/11 02:36:12;;;;;;;93.32;34.17;;;2.60;99.90;;;;;;5013510;28;20365;-71
2022/01/11 02:38:37;;;;;;;96.93;34.78;;;2.60;99.90;;;;;;4991329;28;20029;-72
2022/01/11 02:41:04;;;;;;;99.47;34.70;;;2.60;99.90;;;;;;5013064;28;20075;-71
2022/01/11 02:43:30;;;;;;;93.88;34.65;;;2.60;99.90;;;;;;5021902;28;20552;-72
2022/01/11 02:46:01;;;;;;;100.25;35.85;;;2.60;99.90;;;;;;5032777;28;20033;-72
2022/01/11 02:48:27;;;;;;;100.60;35.83;;;2.60;99.90;;;;;;5017913;28;20125;-72
2022/01/11 02:50:53;;;;;;;97.20;35.33;;;2.70;99.90;;;;;;4996941;28;20030;-71
2022/01/11 02:53:18;;;;;;;101.95;34.67;;;2.70;99.90;;;;;;5021856;28;20064;-71
2022/01/11 02:55:45;;;;;;;95.35;34.92;;;2.70;99.90;;;;;;5032237;28;20040;-71
2022/01/11 02:58:11;;;;;;;104.82;35.85;;;2.70;99.90;;;;;;5032906;28;20044;-72
2022/01/11 03:00:38;;;;;;;100.50;35.20;;;2.60;99.90;;;;;;5032060;28;20482;-72
2022/01/11 03:03:18;;;;;;;99.97;35.17;;;2.70;99.90;;;;;;5023445;28;20038;-71
2022/01/11 03:06:03;;;;;;;101.57;36.25;;;2.60;99.90;;;;;;5012690;28;20046;-72
2022/01/11 03:08:32;;;;;;;110.57;37.42;;;2.60;99.90;;;;;;5013033;28;20044;-72
2022/01/11 03:10:59;;;;;;;105.38;36.13;;;2.70;99.90;;;;;;5012591;28;20103;-72
2022/01/11 03:13:25;;;;;;;103.63;36.63;;;2.70;99.90;;;;;;5016201;28;20080;-72
2022/01/11 03:15:53;;;;;;;108.15;38.03;;;2.70;99.90;;;;;;5027672;28;20444;-71
2022/01/11 03:18:19;;;;;;;105.47;36.97;;;2.70;99.90;;;;;;5028040;28;20060;-71
2022/01/11 03:20:47;;;;;;;112.95;38.70;;;2.70;99.90;;;;;;5032157;28;20107;-72
2022/01/11 03:23:14;;;;;;;110.65;37.85;;;2.70;99.90;;;;;;5025804;28;20029;-72
2022/01/11 03:25:40;;;;;;;114.88;38.67;;;2.70;99.90;;;;;;5032249;28;20410;-71
2022/01/11 03:28:06;;;;;;;118.47;40.55;;;2.70;99.90;;;;;;5031134;28;20091;-72
2022/01/11 03:30:33;;;;;;;114.78;39.80;;;2.70;99.90;;;;;;5032322;28;20032;-72
2022/01/11 03:32:59;;;;;;;113.85;39.72;;;2.70;99.90;;;;;;5031564;28;20414;-71
2022/01/11 03:35:26;;;;;;;114.43;38.38;;;2.70;99.90;;;;;;5032124;28;20033;-71
2022/01/11 03:37:52;;;;;;;107.38;38.85;;;2.70;99.90;;;;;;5017889;28;20038;-71
2022/01/11 03:40:20;;;;;;;109.80;39.22;;;2.70;99.90;;;;;;5029810;28;20030;-72
2022/01/11 03:42:47;;;;;;;109.40;38.90;;;2.70;99.90;;;;;;5032071;28;20028;-72
2022/01/11 03:45:14;;;;;;;102.32;38.25;;;2.70;99.90;;;;;;5014707;28;20396;-72
2022/01/11 03:47:39;;;;;;;114.32;38.88;;;2.70;99.90;;;;;;5026525;28;20422;-71
2022/01/11 03:50:08;;;;;;;107.30;38.55;;;2.60;99.90;;;;;;5032628;28;20084;-72
2022/01/11 03:52:35;;;;;;;106.60;38.42;;;2.70;99.90;;;;;;5030867;28;20517;-71
2022/01/11 03:55:04;;;;;;;97.95;36.83;;;2.60;99.90;;;;;;5020955;28;20387;-71
2022/01/11 03:57:32;;;;;;;108.63;37.65;;;2.60;99.90;;;;;;5025048;28;20028;-72
2022/01/11 04:00:00;;;;;;;105.90;38.05;;;2.60;99.90;;;;;;5031840;28;20034;-71
2022/01/11 04:02:27;;;;;;;101.88;38.08;;;2.60;99.90;;;;;;5029022;28;20111;-71
2022/01/11 04:04:53;;;;;;;103.53;37.63;;;2.50;99.90;;;;;;5001700;28;20482;-71
2022/01/11 04:07:21;;;;;;;104.30;37.85;;;2.60;99.90;;;;;;5031733;28;20398;-71
2022/01/11 04:09:47;;;;;;;97.15;37.50;;;2.60;99.90;;;;;;5030329;28;20025;-71
2022/01/11 04:12:13;;;;;;;99.22;37.47;;;2.50;99.90;;;;;;5008190;28;20080;-71
2022/01/11 04:14:39;;;;;;;98.03;38.40;;;2.50;99.90;;;;;;5012681;28;20030;-71
2022/01/11 04:17:05;;;;;;;100.50;38.03;;;2.50;99.90;;;;;;5016394;28;20101;-71
2022/01/11 04:19:31;;;;;;;106.38;40.08;;;2.50;99.90;;;;;;5012321;28;20018;-71
2022/01/11 04:21:57;;;;;;;99.35;37.75;;;2.50;99.90;;;;;;5012870;28;20042;-71
2022/01/11 04:24:23;;;;;;;107.20;38.72;;;2.50;99.90;;;;;;5027015;28;20021;-71
2022/01/11 04:26:49;;;;;;;95.53;36.50;;;2.50;99.90;;;;;;5030143;28;20036;-72
2022/01/11 04:29:15;;;;;;;98.57;36.88;;;2.50;99.90;;;;;;5032037;28;20038;-71
2022/01/11 04:31:41;;;;;;;101.28;38.13;;;2.50;99.90;;;;;;5025456;28;20029;-72
2022/01/11 04:34:07;;;;;;;101.25;37.72;;;2.50;99.90;;;;;;5011588;28;20042;-72
2022/01/11 04:36:33;;;;;;;101.43;38.95;;;2.50;99.90;;;;;;5012107;28;20029;-71
2022/01/11 04:39:00;;;;;;;94.80;37.33;;;2.50;99.90;;;;;;5032795;28;20018;-72
2022/01/11 04:41:26;;;;;;;88.90;34.97;;;2.40;99.90;;;;;;5033920;28;20651;-72
2022/01/11 04:43:52;;;;;;;96.60;36.30;;;2.40;99.90;;;;;;5034275;28;20021;-71
2022/01/11 04:46:18;;;;;;;90.97;35.55;;;2.40;99.90;;;;;;5028023;28;20033;-71
2022/01/11 04:48:47;;;;;;;94.93;38.33;;;2.40;99.90;;;;;;5033246;28;20495;-72
2022/01/11 04:51:13;;;;;;;95.10;36.53;;;2.50;99.90;;;;;;5036374;28;20108;-71
2022/01/11 04:53:39;;;;;;;90.35;36.78;;;2.50;99.90;;;;;;5028188;28;20033;-71
2022/01/11 04:56:05;;;;;;;92.05;36.25;;;2.40;99.90;;;;;;5035288;28;20056;-72
2022/01/11 04:58:31;;;;;;;89.03;37.17;;;2.50;99.90;;;;;;5019634;28;20029;-72
2022/01/11 05:00:56;;;;;;;90.47;35.60;;;2.50;99.90;;;;;;5029342;28;20060;-71
2022/01/11 05:03:22;;;;;;;81.85;34.95;;;2.50;99.90;;;;;;5015121;28;20029;-72
2022/01/11 05:05:47;;;;;;;86.10;34.97;;;2.50;99.90;;;;;;5034930;28;20097;-71
2022/01/11 05:08:13;;;;;;;87.53;35.80;;;2.50;99.90;;;;;;5033718;28;20481;-71
2022/01/11 05:10:42;;;;;;;85.45;34.90;;;2.60;99.90;;;;;;5035053;28;20025;-71
2022/01/11 05:13:12;;;;;;;92.43;37.25;;;2.50;99.90;;;;;;5028681;28;20024;-72
2022/01/11 05:15:39;;;;;;;84.05;35.10;;;2.60;99.90;;;;;;5041353;28;20060;-72
2022/01/11 05:18:05;;;;;;;84.60;35.60;;;2.60;99.90;;;;;;5036811;28;20475;-71
2022/01/11 05:20:31;;;;;;;86.35;34.97;;;2.60;99.90;;;;;;5040015;28;20056;-72
2022/01/11 05:22:57;;;;;;;83.10;34.92;;;2.50;99.90;;;;;;5033450;28;20479;-72
2022/01/11 05:25:22;;;;;;;80.75;34.08;;;2.50;99.90;;;;;;5026689;28;20071;-71
2022/01/11 05:27:48;;;;;;;75.80;32.58;;;2.50;99.90;;;;;;5018486;28;20026;-71
2022/01/11 05:30:14;;;;;;;72.30;31.42;;;2.50;99.90;;;;;;5019770;28;20026;-70
2022/01/11 05:32:41;;;;;;;77.30;31.88;;;2.50;99.90;;;;;;5016930;28;20075;-70
2022/01/11 05:35:07;;;;;;;69.35;30.42;;;2.50;99.90;;;;;;5022424;28;20104;-71
2022/01/11 05:37:34;;;;;;;68.78;29.85;;;2.50;99.90;;;;;;5018565;28;20021;-72
2022/01/11 05:39:59;;;;;;;66.47;30.55;;;2.50;99.90;;;;;;5030325;28;20032;-71
2022/01/11 05:42:26;;;;;;;62.70;28.98;;;2.50;99.90;;;;;;5032783;28;20026;-71
2022/01/11 05:44:52;;;;;;;69.13;29.73;;;2.50;99.90;;;;;;5034402;28;20518;-71
2022/01/11 05:47:18;;;;;;;67.28;29.42;;;2.50;99.90;;;;;;5031895;28;20025;-71
2022/01/11 05:49:44;;;;;;;70.97;28.98;;;2.50;99.90;;;;;;5028633;28;20399;-71
2022/01/11 05:52:10;;;;;;;66.68;29.55;;;2.50;99.90;;;;;;5025410;28;20036;-71
2022/01/11 05:54:35;;;;;;;60.83;28.77;;;2.50;99.90;;;;;;5013947;28;20101;-71
2022/01/11 05:57:01;;;;;;;64.50;29.88;;;2.50;99.90;;;;;;5021326;28;20033;-70
2022/01/11 05:59:27;;;;;;;63.38;28.40;;;2.50;99.90;;;;;;5025491;28;20076;-70
2022/01/11 06:01:52;;;;;;;65.78;28.67;;;2.50;99.90;;;;;;5033717;28;20029;-70
2022/01/11 06:04:18;;;;;;;61.13;27.30;;;2.50;99.90;;;;;;5024903;28;20025;-71
2022/01/11 06:06:44;;;;;;;59.97;28.33;;;2.50;99.90;;;;;;5017109;28;20029;-71
2022/01/11 06:09:09;;;;;;;61.20;29.27;;;2.60;99.90;;;;;;5029285;28;20031;-72
2022/01/11 06:11:35;;;;;;;64.47;28.17;;;2.50;99.90;;;;;;5037111;28;20022;-72
2022/01/11 06:14:00;;;;;;;56.13;27.45;;;2.50;99.90;;;;;;5024437;28;20079;-72
2022/01/11 06:16:26;;;;;;;56.17;27.20;;;2.60;99.90;;;;;;5045783;28;20025;-72
2022/01/11 06:18:52;;;;;;;61.20;27.48;;;2.50;99.90;;;;;;5027865;28;20443;-72
2022/01/11 06:21:17;;;;;;;54.40;26.73;;;2.60;99.90;;;;;;5019462;28;20041;-72
2022/01/11 06:23:45;;;;;;;60.90;26.70;;;2.60;99.90;;;;;;5037285;28;20025;-72
2022/01/11 06:26:11;;;;;;;60.50;26.92;;;2.50;99.90;;;;;;5030016;28;20455;-71
2022/01/11 06:28:38;;;;;;;60.53;25.65;;;2.60;99.90;;;;;;5040262;28;20159;-72
2022/01/11 06:31:03;;;;;;;61.42;26.70;;;2.50;99.90;;;;;;5038433;28;20029;-72
2022/01/11 06:33:29;;;;;;;53.60;25.20;;;2.50;99.90;;;;;;5033660;28;20037;-72
2022/01/11 06:35:54;;;;;;;59.80;26.02;;;2.50;99.90;;;;;;5034903;28;20113;-72
2022/01/11 06:38:20;;;;;;;52.63;25.75;;;2.40;99.90;;;;;;5032248;28;20364;-72
2022/01/11 06:40:46;;;;;;;56.05;26.23;;;2.40;99.90;;;;;;5023156;28;20398;-71
2022/01/11 06:43:11;;;;;;;55.28;25.02;;;2.40;99.90;;;;;;5015866;28;20037;-71
2022/01/11 06:45:38;;;;;;;57.70;25.85;;;2.40;99.90;;;;;;5029883;28;20510;-72
2022/01/11 06:48:04;;;;;;;53.67;25.52;;;2.50;99.90;;;;;;5033073;28;20052;-72
2022/01/11 06:50:30;;;;;;;53.83;25.73;;;2.50;99.90;;;;;;5036222;28;20036;-72
2022/01/11 06:52:55;;;;;;;51.20;24.75;;;2.50;99.90;;;;;;5034184;28;20045;-71
2022/01/11 06:55:21;;;;;;;56.17;25.10;;;2.40;99.90;;;;;;5031088;28;20025;-72
2022/01/11 06:57:47;;;;;;;53.17;24.20;;;2.50;99.90;;;;;;5040876;28;20171;-71
2022/01/11 07:00:13;;;;;;;55.10;25.05;;;2.40;99.90;;;;;;5037816;28;20033;-72
2022/01/11 07:02:39;;;;;;;48.55;23.67;;;2.50;99.90;;;;;;5043365;28;20032;-72
2022/01/11 07:05:06;;;;;;;51.45;24.55;;;2.50;99.90;;;;;;5028059;28;20026;-71
2022/01/11 07:07:32;;;;;;;49.40;23.20;;;2.50;99.90;;;;;;5011821;28;20113;-72
2022/01/11 07:09:57;;;;;;;49.10;23.48;;;2.50;99.90;;;;;;5022624;28;20108;-71
2022/01/11 07:12:23;;;;;;;51.53;24.25;;;2.50;99.90;;;;;;5012763;28;20018;-72
2022/01/11 07:14:49;;;;;;;48.50;23.05;;;2.50;99.90;;;;;;5027987;28;20037;-72
2022/01/11 07:17:15;;;;;;;51.53;23.13;;;2.50;99.90;;;;;;5036248;28;20071;-72
2022/01/11 07:19:42;;;;;;;47.75;24.33;;;2.50;99.90;;;;;;5030234;28;20491;-72
2022/01/11 07:22:08;;;;;;;49.03;22.60;;;2.50;99.90;;;;;;5031304;28;20057;-72
2022/01/11 07:24:33;;;;;;;48.65;22.90;;;2.40;99.90;;;;;;5023729;28;20073;-72
2022/01/11 07:27:00;;;;;;;49.10;22.90;;;2.50;99.90;;;;;;5011179;28;20065;-72
2022/01/11 07:29:26;;;;;;;46.35;21.88;;;2.40;99.90;;;;;;5026435;28;20029;-72
2022/01/11 07:31:52;;;;;;;46.40;22.20;;;2.40;99.90;;;;;;5019189;28;20355;-71
2022/01/11 07:34:17;;;;;;;43.25;22.05;;;2.40;99.90;;;;;;5020493;28;20040;-72
2022/01/11 07:36:44;;;;;;;47.28;22.92;;;2.50;99.90;;;;;;5030951;28;20032;-72
2022/01/11 07:39:12;;;;;;;45.05;22.48;;;2.50;99.90;;;;;;5031412;28;20470;-72
2022/01/11 07:41:38;;;;;;;44.78;21.10;;;2.40;99.90;;;;;;5028989;28;20033;-77
2022/01/11 07:44:04;;;;;;;46.33;22.50;;;2.40;99.90;;;;;;5012919;28;20033;-73
2022/01/11 07:46:30;;;;;;;47.47;21.30;;;2.40;99.90;;;;;;5016500;28;20475;-72
2022/01/11 07:48:57;;;;;;;47.28;22.25;;;2.40;99.90;;;;;;5044208;28;20026;-71
2022/01/11 07:51:23;;;;;;;46.45;22.05;;;2.40;99.90;;;;;;5031126;28;20034;-71
2022/01/11 07:53:50;;;;;;;46.65;21.70;;;2.40;99.90;;;;;;5023659;28;20037;-71
2022/01/11 07:56:16;;;;;;;44.53;21.13;;;2.40;99.90;;;;;;5011341;28;20022;-72
2022/01/11 07:58:41;;;;;;;45.05;21.85;;;2.40;99.90;;;;;;5011530;28;20081;-72
2022/01/11 08:01:07;;;;;;;44.47;20.73;;;2.40;99.90;;;;;;5023282;28;20025;-71
2022/01/11 08:03:32;;;;;;;40.50;20.77;;;2.40;99.90;;;;;;5028049;28;20142;-72
2022/01/11 08:05:58;;;;;;;45.53;20.67;;;2.40;99.90;;;;;;5018734;28;20038;-72
2022/01/11 08:08:24;;;;;;;45.80;21.25;;;2.40;99.90;;;;;;5038981;28;20112;-69
2022/01/11 08:10:50;;;;;;;44.58;19.80;;;2.40;99.90;;;;;;5033727;28;20045;-69
2022/01/11 08:13:16;;;;;;;46.88;21.60;;;2.40;99.90;;;;;;5030024;28;20120;-69
2022/01/11 08:15:42;;;;;;;43.60;21.17;;;2.30;99.90;;;;;;5014648;28;20014;-70
2022/01/11 08:18:08;;;;;;;45.22;20.98;;;2.40;99.90;;;;;;5012585;28;20048;-70
2022/01/11 08:20:34;;;;;;;39.60;19.58;;;2.30;99.90;;;;;;5024628;28;20388;-70
2022/01/11 08:23:00;;;;;;;42.20;20.15;;;2.40;99.90;;;;;;5019254;28;20057;-70
2022/01/11 08:25:26;;;;;;;39.80;19.95;;;2.40;99.90;;;;;;5014445;28;20391;-70
2022/01/11 08:27:52;;;;;;;41.58;20.38;;;2.40;99.90;;;;;;5028443;28;20026;-70
2022/01/11 08:30:18;;;;;;;38.38;19.17;;;2.30;99.90;;;;;;5027241;28;20029;-70
2022/01/11 08:32:43;;;;;;;41.60;20.02;;;2.40;99.90;;;;;;5024835;28;20052;-71
2022/01/11 08:35:10;;;;;;;40.72;19.65;;;2.30;99.90;;;;;;5034032;28;20382;-70
2022/01/11 08:37:36;;;;;;;38.40;19.15;;;2.40;99.90;;;;;;5034197;28;20029;-70
2022/01/11 08:40:03;;;;;;;39.05;19.35;;;2.30;99.90;;;;;;5034186;28;20108;-70
2022/01/11 08:42:29;;;;;;;43.40;19.23;;;2.30;99.90;;;;;;5034684;28;20537;-70
2022/01/11 08:44:55;;;;;;;40.92;18.63;;;2.40;99.90;;;;;;5035088;28;20051;-71
2022/01/11 08:47:21;;;;;;;40.70;19.30;;;2.40;99.90;;;;;;5034429;28;20033;-71
2022/01/11 08:49:47;;;;;;;42.20;19.42;;;2.30;99.90;;;;;;5029140;28;20091;-71
2022/01/11 08:52:13;;;;;;;43.97;19.38;;;2.40;99.90;;;;;;5034816;28;20022;-70
2022/01/11 08:54:39;;;;;;;41.30;19.42;;;2.40;99.90;;;;;;5012105;28;20077;-71
2022/01/11 08:57:05;;;;;;;38.92;17.83;;;2.40;99.90;;;;;;5000598;28;20046;-70
2022/01/11 08:59:31;;;;;;;38.28;19.33;;;2.40;99.90;;;;;;5022763;28;20036;-71
2022/01/11 09:01:59;;;;;;;41.83;18.35;;;2.30;99.90;;;;;;5024276;28;20534;-70
2022/01/11 09:04:26;;;;;;;44.58;19.08;;;2.30;99.90;;;;;;5020131;28;20025;-70
2022/01/11 09:06:53;;;;;;;43.08;19.65;;;2.30;99.90;;;;;;4998210;28;20022;-70
2022/01/11 09:09:20;;;;;;;38.28;18.80;;;2.30;99.90;;;;;;5023673;28;20088;-70
2022/01/11 09:11:46;;;;;;;43.85;19.73;;;2.30;99.90;;;;;;5033178;28;20018;-70
2022/01/11 09:14:12;;;;;;;44.10;18.73;;;2.30;99.90;;;;;;5032819;28;20371;-70
2022/01/11 09:16:38;;;;;;;40.03;19.60;;;2.30;99.90;;;;;;5016234;28;20216;-71
2022/01/11 09:19:04;;;;;;;45.42;20.30;;;2.30;99.90;;;;;;5033961;28;20041;-71
2022/01/11 09:21:31;;;;;;;47.85;20.80;;;2.30;99.90;;;;;;5049130;28;20063;-70
2022/01/11 09:23:57;;;;;;;39.00;19.77;;;2.40;99.90;;;;;;5038974;28;20037;-71
2022/01/11 09:26:23;;;;;;;40.40;18.85;;;2.30;99.90;;;;;;5037138;28;20026;-70
2022/01/11 09:28:48;;;;;;;43.67;19.92;;;2.40;99.90;;;;;;5035630;28;20100;-70
2022/01/11 09:31:14;;;;;;;36.92;19.20;;;2.40;99.90;;;;;;5022966;28;20038;-70
2022/01/11 09:33:39;;;;;;;42.95;19.05;;;2.40;99.90;;;;;;5031049;28;20029;-71
2022/01/11 09:36:06;;;;;;;43.45;20.20;;;2.40;99.90;;;;;;5039166;28;20148;-70
2022/01/11 09:38:32;;;;;;;41.35;19.73;;;2.40;99.90;;;;;;5031742;28;20030;-70
2022/01/11 09:40:58;;;;;;;40.20;18.58;;;2.40;99.90;;;;;;5025336;28;20502;-71
2022/01/11 09:43:25;;;;;;;43.72;18.77;;;2.40;99.90;;;;;;5036156;28;20040;-71
2022/01/11 09:45:52;;;;;;;45.58;19.35;;;2.40;99.90;;;;;;5016582;28;20017;-71
2022/01/11 09:48:23;;;;;;;38.78;18.88;;;2.50;99.90;;;;;;5019570;28;20471;-71
2022/01/11 09:50:49;;;;;;;42.90;19.88;;;2.60;99.90;;;;;;5021049;28;20061;-71
2022/01/11 09:53:15;;;;;;;39.40;19.02;;;2.60;99.90;;;;;;5014443;28;20057;-70
2022/01/11 09:55:43;;;;;;;43.20;19.23;;;2.70;99.90;;;;;;5032014;28;20029;-71
2022/01/11 09:58:10;;;;;;;47.28;19.20;;;2.80;99.90;;;;;;5036335;28;20026;-70
2022/01/11 10:00:36;;;;;;;40.38;18.10;;;2.90;99.90;;;;;;5045253;28;20082;-71
2022/01/11 10:03:04;;;;;;;37.15;18.40;;;2.90;99.90;;;;;;5029009;28;20072;-71
2022/01/11 10:05:29;;;;;;;40.63;18.45;;;3.00;99.90;;;;;;5033096;28;20121;-71
2022/01/11 10:07:55;;;;;;;36.30;18.08;;;3.00;99.90;;;;;;5037303;28;20085;-71
2022/01/11 10:10:23;;;;;;;37.10;17.65;;;3.10;99.90;;;;;;5036512;28;20039;-71
2022/01/11 10:13:03;;;;;;;42.45;18.50;;;3.20;99.90;;;;;;5044270;28;20518;-72
2022/01/11 10:15:31;;;;;;;36.60;18.02;;;3.20;99.90;;;;;;5041179;28;20132;-71
2022/01/11 10:17:56;;;;;;;36.60;17.67;;;3.30;99.90;;;;;;5043596;28;20037;-71
2022/01/11 10:20:24;;;;;;;35.67;17.33;;;3.40;99.90;;;;;;5021494;28;20045;-71
2022/01/11 10:22:53;;;;;;;35.03;17.70;;;3.40;99.90;;;;;;5043204;28;20029;-72
2022/01/11 10:25:19;;;;;;;38.13;18.05;;;3.50;99.90;;;;;;5045815;28;20009;-71
2022/01/11 10:28:00;;;;;;;37.67;17.80;;;3.50;99.90;;;;;;5040589;28;20028;-71
2022/01/11 10:30:26;;;;;;;36.00;17.40;;;3.70;99.90;;;;;;5045146;28;20025;-71
2022/01/11 10:32:55;;;;;;;34.38;16.73;;;3.70;99.90;;;;;;5044200;28;20090;-71
2022/01/11 10:35:30;;;;;;;34.42;16.67;;;3.80;99.90;;;;;;5038357;28;20025;-72
2022/01/11 10:38:00;;;;;;;34.65;16.40;;;3.90;99.90;;;;;;5016559;28;20028;-72
2022/01/11 10:40:34;;;;;;;38.95;17.08;;;4.00;99.90;;;;;;5044187;28;20024;-72
2022/01/11 10:43:08;;;;;;;36.92;17.05;;;4.00;99.90;;;;;;5039625;28;20029;-72
2022/01/11 10:45:40;;;;;;;34.28;16.20;;;4.10;99.90;;;;;;5035289;28;20064;-72
2022/01/11 10:48:08;;;;;;;40.45;17.70;;;4.10;99.90;;;;;;5041651;28;20025;-71
2022/01/11 10:50:37;;;;;;;36.67;16.23;;;4.20;99.90;;;;;;5036131;28;20107;-71
2022/01/11 10:53:18;;;;;;;34.47;16.40;;;4.20;99.90;;;;;;5042995;28;20025;-71
2022/01/11 10:55:50;;;;;;;36.10;16.83;;;4.20;99.90;;;;;;5041315;28;20083;-71
2022/01/11 10:58:15;;;;;;;34.40;16.83;;;4.20;99.90;;;;;;5040996;28;20551;-71
2022/01/11 11:00:52;;;;;;;33.55;16.10;;;4.30;99.90;;;;;;5034284;28;20029;-71
2022/01/11 11:03:20;;;;;;;34.35;16.90;;;4.30;99.90;;;;;;5037208;28;20048;-71
2022/01/11 11:05:53;;;;;;;37.65;17.55;;;4.40;99.90;;;;;;5042133;28;20074;-71
2022/01/11 11:08:24;;;;;;;36.35;16.45;;;4.40;99.90;;;;;;5035380;28;20485;-72
2022/01/11 11:10:55;;;;;;;34.78;16.55;;;4.50;99.90;;;;;;5043222;28;20053;-72
2022/01/11 11:13:26;;;;;;;34.28;16.58;;;4.50;99.90;;;;;;5041999;28;20053;-72
2022/01/11 11:15:56;;;;;;;33.38;16.48;;;4.60;99.90;;;;;;5028527;28;20024;-72
2022/01/11 11:18:38;;;;;;;32.85;16.10;;;4.60;99.90;;;;;;5036294;28;20083;-72
2022/01/11 11:21:32;;;;;;;31.25;15.85;;;4.70;99.90;;;;;;5036839;28;20130;-72
2022/01/11 11:24:01;;;;;;;32.78;15.65;;;4.80;99.90;;;;;;5046606;28;20076;-72
2022/01/11 11:26:37;;;;;;;36.20;16.65;;;4.90;99.90;;;;;;5043348;28;20102;-72
2022/01/11 11:29:04;;;;;;;;;;;4.90;99.90;;;;;;5039533;28;20025;-72
2022/01/11 11:31:30;;;;;;;32.97;15.57;;;5.00;99.90;;;;;;5037011;28;19909;-72
2022/01/11 11:33:56;;;;;;;35.25;16.15;;;5.10;99.90;;;;;;5014732;28;20049;-72
2022/01/11 11:36:22;;;;;;;30.80;15.32;;;5.10;99.90;;;;;;5041592;28;20432;-72
2022/01/11 11:39:03;;;;;;;35.03;16.70;;;5.10;99.90;;;;;;5040312;28;20025;-72
2022/01/11 11:41:30;;;;;;;31.20;15.57;;;5.20;99.90;;;;;;5041792;28;20013;-72
2022/01/11 11:44:05;;;;;;;31.38;15.85;;;5.30;99.90;;;;;;5045241;28;20025;-72
2022/01/11 11:46:52;;;;;;;38.30;16.42;;;5.30;99.90;;;;;;5044656;28;20083;-72
2022/01/11 11:49:47;;;;;;;34.22;15.93;;;5.40;99.90;;;;;;5004121;28;20044;-72
2022/01/11 11:52:27;;;;;;;34.80;15.90;;;5.60;99.90;;;;;;5050739;28;20424;-72
2022/01/11 11:55:02;;;;;;;30.05;15.45;;;5.60;99.90;;;;;;5047477;28;20490;-73
2022/01/11 11:57:33;;;;;;;29.45;15.10;;;5.60;99.90;;;;;;5022938;28;20112;-72
2022/01/11 12:00:03;;;;;;;32.50;14.88;;;5.60;99.90;;;;;;5038265;28;20025;-73
2022/01/11 12:02:35;;;;;;;31.48;15.27;;;5.60;99.90;;;;;;5031754;28;20040;-72
2022/01/11 12:05:04;;;;;;;37.33;15.60;;;5.60;99.90;;;;;;5018335;28;20026;-72
2022/01/11 12:07:41;;;;;;;32.22;15.32;;;5.60;99.90;;;;;;5027547;28;20033;-72
2022/01/11 12:10:16;;;;;;;34.55;15.55;;;5.50;99.90;;;;;;5041364;28;20493;-72
2022/01/11 12:12:52;;;;;;;32.03;15.20;;;5.50;99.90;;;;;;5016480;28;20562;-72
2022/01/11 12:15:32;;;;;;;33.95;14.93;;;5.50;99.90;;;;;;5030477;28;20033;-72
2022/01/11 12:17:57;;;;;;;35.72;15.38;;;5.50;99.90;;;;;;5035694;28;20449;-72
2022/01/11 12:20:42;;;;;;;32.13;15.75;;;5.50;99.90;;;;;;5035447;28;20112;-72
2022/01/11 12:23:10;;;;;;;33.97;15.57;;;5.50;99.90;;;;;;5033147;28;20385;-72
2022/01/11 12:25:42;;;;;;;32.75;15.18;;;5.60;99.90;;;;;;5032256;28;20037;-73
2022/01/11 12:28:16;;;;;;;34.45;15.30;;;5.80;99.90;;;;;;5011673;28;20084;-73
2022/01/11 12:30:42;;;;;;;32.97;15.23;;;5.90;99.90;;;;;;5036088;28;20022;-72
2022/01/11 12:33:21;;;;;;;33.83;15.13;;;6.00;99.90;;;;;;5037215;28;20081;-72
2022/01/11 12:36:04;;;;;;;31.50;15.00;;;6.10;99.90;;;;;;5036211;28;20028;-72
2022/01/11 12:38:37;;;;;;;38.08;15.75;;;6.20;99.90;;;;;;5040310;28;20108;-72
2022/01/11 12:41:37;;;;;;;32.53;15.88;;;6.30;99.90;;;;;;5042576;28;20037;-73
2022/01/11 12:45:35;;;;;;;33.75;15.40;;;6.40;99.90;;;;;;5042512;28;20096;-72